sensor_id;sensor_type;location;lat;lon;timestamp;temperature;humidity
28520;DHT22;15732;48.534;20.382;2022-12-18T00:01:57;2.40;99.90
28520;DHT22;15732;48.534;20.382;2022-12-18T00:04:25;2.40;99.90
28520;DHT22;15732;48.534;20.382;2022-12-18T00:06:52;2.40;99.90
28520;DHT22;15732;48.534;20.382;2022-12-18T00:09:19;2.40;99.90
28520;DHT22;15732;48.534;20.382;2022-12-18T00:11:51;2.40;99.90
28520;DHT22;15732;48.534;20.382;2022-12-18T00:14:22;2.40;99.90
28520;DHT22;15732;48.534;20.382;2022-12-18T00:16:49;2.40;99.90
28520;DHT22;15732;48.534;20.382;2022-12-18T00:19:16;2.30;99.90
28520;DHT22;15732;48.534;20.382;2022-12-18T00:21:44;2.40;99.90
28520;DHT22;15732;48.534;20.382;2022-12-18T00:24:11;2.40;99.90
28520;DHT22;15732;48.534;20.382;2022-12-18T00:26:39;2.30;99.90
28520;DHT22;15732;48.534;20.382;2022-12-18T00:29:12;2.20;99.90
28520;DHT22;15732;48.534;20.382;2022-12-18T00:31:59;2.20;99.90
28520;DHT22;15732;48.534;20.382;2022-12-18T00:34:26;2.20;99.90
28520;DHT22;15732;48.534;20.382;2022-12-18T00:36:54;2.20;99.90
28520;DHT22;15732;48.534;20.382;2022-12-18T00:39:21;2.10;99.90
28520;DHT22;15732;48.534;20.382;2022-12-18T00:41:48;2.10;99.90
28520;DHT22;15732;48.534;20.382;2022-12-18T00:44:34;2.10;99.90
28520;DHT22;15732;48.534;20.382;2022-12-18T00:47:01;2.10;99.90
28520;DHT22;15732;48.534;20.382;2022-12-18T00:49:33;2.10;99.90
28520;DHT22;15732;48.534;20.382;2022-12-18T00:52:00;2.00;99.90
28520;DHT22;15732;48.534;20.382;2022-12-18T00:54:28;2.00;99.90
28520;DHT22;15732;48.534;20.382;2022-12-18T00:56:55;2.00;99.90
28520;DHT22;15732;48.534;20.382;2022-12-18T00:59:22;2.00;99.90
28520;DHT22;15732;48.534;20.382;2022-12-18T01:01:50;2.00;99.90
28520;DHT22;15732;48.534;20.382;2022-12-18T01:04:21;2.00;99.90
28520;DHT22;15732;48.534;20.382;2022-12-18T01:06:48;2.10;99.90
28520;DHT22;15732;48.534;20.382;2022-12-18T01:09:15;2.10;99.90
28520;DHT22;15732;48.534;20.382;2022-12-18T01:11:42;2.00;99.90
28520;DHT22;15732;48.534;20.382;2022-12-18T01:14:13;2.00;99.90
28520;DHT22;15732;48.534;20.382;2022-12-18T01:16:41;2.00;99.90
28520;DHT22;15732;48.534;20.382;2022-12-18T01:19:08;1.90;99.90
28520;DHT22;15732;48.534;20.382;2022-12-18T01:21:36;1.90;99.90
28520;DHT22;15732;48.534;20.382;2022-12-18T01:24:03;1.90;99.90
28520;DHT22;15732;48.534;20.382;2022-12-18T01:26:31;2.00;99.90
28520;DHT22;15732;48.534;20.382;2022-12-18T01:28:59;2.00;99.90
28520;DHT22;15732;48.534;20.382;2022-12-18T01:31:29;2.00;99.90
28520;DHT22;15732;48.534;20.382;2022-12-18T01:33:57;2.00;99.90
28520;DHT22;15732;48.534;20.382;2022-12-18T01:36:29;2.00;99.90
28520;DHT22;15732;48.534;20.382;2022-12-18T01:38:56;1.90;99.90
28520;DHT22;15732;48.534;20.382;2022-12-18T01:41:25;2.00;99.90
28520;DHT22;15732;48.534;20.382;2022-12-18T01:43:57;2.00;99.90
28520;DHT22;15732;48.534;20.382;2022-12-18T01:46:24;2.00;99.90
28520;DHT22;15732;48.534;20.382;2022-12-18T01:48:57;2.00;99.90
28520;DHT22;15732;48.534;20.382;2022-12-18T01:51:25;2.00;99.90
28520;DHT22;15732;48.534;20.382;2022-12-18T01:53:52;2.00;99.90
28520;DHT22;15732;48.534;20.382;2022-12-18T01:56:20;2.00;99.90
28520;DHT22;15732;48.534;20.382;2022-12-18T01:58:54;2.00;99.90
28520;DHT22;15732;48.534;20.382;2022-12-18T02:01:26;2.10;99.90
28520;DHT22;15732;48.534;20.382;2022-12-18T02:03:54;2.10;99.90
28520;DHT22;15732;48.534;20.382;2022-12-18T02:06:29;2.20;99.90
28520;DHT22;15732;48.534;20.382;2022-12-18T02:09:13;2.20;99.90
28520;DHT22;15732;48.534;20.382;2022-12-18T02:17:18;2.20;99.90
28520;DHT22;15732;48.534;20.382;2022-12-18T02:22:35;2.30;99.90
28520;DHT22;15732;48.534;20.382;2022-12-18T02:28:00;2.20;99.90
28520;DHT22;15732;48.534;20.382;2022-12-18T02:30:31;2.20;99.90
28520;DHT22;15732;48.534;20.382;2022-12-18T02:33:01;2.10;99.90
28520;DHT22;15732;48.534;20.382;2022-12-18T02:35:30;2.00;99.90
28520;DHT22;15732;48.534;20.382;2022-12-18T02:37:59;2.00;99.90
28520;DHT22;15732;48.534;20.382;2022-12-18T02:40:27;1.90;99.90
28520;DHT22;15732;48.534;20.382;2022-12-18T02:42:55;1.90;99.90
28520;DHT22;15732;48.534;20.382;2022-12-18T02:45:28;1.80;99.90
28520;DHT22;15732;48.534;20.382;2022-12-18T02:47:56;1.80;99.90
28520;DHT22;15732;48.534;20.382;2022-12-18T02:50:44;1.70;99.90
28520;DHT22;15732;48.534;20.382;2022-12-18T02:53:17;1.60;99.90
28520;DHT22;15732;48.534;20.382;2022-12-18T02:58:59;1.50;99.90
28520;DHT22;15732;48.534;20.382;2022-12-18T03:04:39;1.50;99.90
28520;DHT22;15732;48.534;20.382;2022-12-18T03:07:16;1.40;99.90
28520;DHT22;15732;48.534;20.382;2022-12-18T03:09:47;1.40;99.90
28520;DHT22;15732;48.534;20.382;2022-12-18T03:12:28;1.40;99.90
28520;DHT22;15732;48.534;20.382;2022-12-18T03:18:11;1.30;99.90
28520;DHT22;15732;48.534;20.382;2022-12-18T03:20:42;1.20;99.90
28520;DHT22;15732;48.534;20.382;2022-12-18T03:23:13;1.20;99.90
28520;DHT22;15732;48.534;20.382;2022-12-18T03:25:44;1.20;99.90
28520;DHT22;15732;48.534;20.382;2022-12-18T03:28:15;1.30;99.90
28520;DHT22;15732;48.534;20.382;2022-12-18T03:30:47;1.30;99.90
28520;DHT22;15732;48.534;20.382;2022-12-18T03:33:25;1.40;99.90
28520;DHT22;15732;48.534;20.382;2022-12-18T03:35:56;1.50;99.90
28520;DHT22;15732;48.534;20.382;2022-12-18T03:38:28;1.50;99.90
28520;DHT22;15732;48.534;20.382;2022-12-18T03:41:38;1.60;99.90
28520;DHT22;15732;48.534;20.382;2022-12-18T03:44:29;1.60;99.90
28520;DHT22;15732;48.534;20.382;2022-12-18T03:50:25;1.60;99.90
28520;DHT22;15732;48.534;20.382;2022-12-18T03:55:28;1.70;99.90
28520;DHT22;15732;48.534;20.382;2022-12-18T03:57:58;1.70;99.90
28520;DHT22;15732;48.534;20.382;2022-12-18T04:00:26;1.70;99.90
28520;DHT22;15732;48.534;20.382;2022-12-18T04:02:56;1.60;99.90
28520;DHT22;15732;48.534;20.382;2022-12-18T04:05:25;1.60;99.90
28520;DHT22;15732;48.534;20.382;2022-12-18T04:07:53;1.50;99.90
28520;DHT22;15732;48.534;20.382;2022-12-18T04:10:21;1.40;99.90
28520;DHT22;15732;48.534;20.382;2022-12-18T04:12:49;1.40;99.90
28520;DHT22;15732;48.534;20.382;2022-12-18T04:15:16;1.40;99.90
28520;DHT22;15732;48.534;20.382;2022-12-18T04:17:48;1.40;99.90
28520;DHT22;15732;48.534;20.382;2022-12-18T04:20:16;1.40;99.90
28520;DHT22;15732;48.534;20.382;2022-12-18T04:22:43;1.50;99.90
28520;DHT22;15732;48.534;20.382;2022-12-18T04:25:15;1.40;99.90
28520;DHT22;15732;48.534;20.382;2022-12-18T04:27:42;1.40;99.90
28520;DHT22;15732;48.534;20.382;2022-12-18T04:30:11;1.50;99.90
28520;DHT22;15732;48.534;20.382;2022-12-18T04:32:38;1.50;99.90
28520;DHT22;15732;48.534;20.382;2022-12-18T04:35:06;1.50;99.90
28520;DHT22;15732;48.534;20.382;2022-12-18T04:37:37;1.40;99.90
28520;DHT22;15732;48.534;20.382;2022-12-18T04:40:05;1.40;99.90
28520;DHT22;15732;48.534;20.382;2022-12-18T04:42:32;1.40;99.90
28520;DHT22;15732;48.534;20.382;2022-12-18T04:45:04;1.40;99.90
28520;DHT22;15732;48.534;20.382;2022-12-18T04:47:32;1.40;99.90
28520;DHT22;15732;48.534;20.382;2022-12-18T04:49:59;1.40;99.90
28520;DHT22;15732;48.534;20.382;2022-12-18T04:52:26;1.40;99.90
28520;DHT22;15732;48.534;20.382;2022-12-18T04:54:54;1.40;99.90
28520;DHT22;15732;48.534;20.382;2022-12-18T04:57:21;1.40;99.90
28520;DHT22;15732;48.534;20.382;2022-12-18T04:59:49;1.30;99.90
28520;DHT22;15732;48.534;20.382;2022-12-18T05:02:16;1.30;99.90
28520;DHT22;15732;48.534;20.382;2022-12-18T05:04:43;1.30;99.90
28520;DHT22;15732;48.534;20.382;2022-12-18T05:07:10;1.30;99.90
28520;DHT22;15732;48.534;20.382;2022-12-18T05:09:38;1.30;99.90
28520;DHT22;15732;48.534;20.382;2022-12-18T05:12:05;1.40;99.90
28520;DHT22;15732;48.534;20.382;2022-12-18T05:14:33;1.40;99.90
28520;DHT22;15732;48.534;20.382;2022-12-18T05:17:00;1.50;99.90
28520;DHT22;15732;48.534;20.382;2022-12-18T05:19:28;1.50;99.90
28520;DHT22;15732;48.534;20.382;2022-12-18T05:21:59;1.30;99.90
28520;DHT22;15732;48.534;20.382;2022-12-18T05:24:26;1.10;99.90
28520;DHT22;15732;48.534;20.382;2022-12-18T05:26:54;1.00;99.90
28520;DHT22;15732;48.534;20.382;2022-12-18T05:29:25;0.90;99.90
28520;DHT22;15732;48.534;20.382;2022-12-18T05:31:52;0.90;99.90
28520;DHT22;15732;48.534;20.382;2022-12-18T05:34:19;0.90;99.90
28520;DHT22;15732;48.534;20.382;2022-12-18T05:36:46;0.90;99.90
28520;DHT22;15732;48.534;20.382;2022-12-18T05:39:13;0.90;99.90
28520;DHT22;15732;48.534;20.382;2022-12-18T05:41:40;0.90;99.90
28520;DHT22;15732;48.534;20.382;2022-12-18T05:44:07;0.90;99.90
28520;DHT22;15732;48.534;20.382;2022-12-18T05:46:35;0.90;99.90
28520;DHT22;15732;48.534;20.382;2022-12-18T05:49:03;0.90;99.90
28520;DHT22;15732;48.534;20.382;2022-12-18T05:51:30;0.90;99.90
28520;DHT22;15732;48.534;20.382;2022-12-18T05:53:58;0.80;99.90
28520;DHT22;15732;48.534;20.382;2022-12-18T05:56:29;0.80;99.90
28520;DHT22;15732;48.534;20.382;2022-12-18T05:58:56;0.80;99.90
28520;DHT22;15732;48.534;20.382;2022-12-18T06:01:25;0.90;99.90
28520;DHT22;15732;48.534;20.382;2022-12-18T06:03:53;1.00;99.90
28520;DHT22;15732;48.534;20.382;2022-12-18T06:06:23;1.00;99.90
28520;DHT22;15732;48.534;20.382;2022-12-18T06:08:51;1.10;99.90
28520;DHT22;15732;48.534;20.382;2022-12-18T06:11:23;1.10;99.90
28520;DHT22;15732;48.534;20.382;2022-12-18T06:13:51;1.20;99.90
28520;DHT22;15732;48.534;20.382;2022-12-18T06:16:18;1.20;99.90
28520;DHT22;15732;48.534;20.382;2022-12-18T06:18:45;1.20;99.90
28520;DHT22;15732;48.534;20.382;2022-12-18T06:21:12;1.30;99.90
28520;DHT22;15732;48.534;20.382;2022-12-18T06:23:39;1.30;99.90
28520;DHT22;15732;48.534;20.382;2022-12-18T06:26:09;1.30;99.90
28520;DHT22;15732;48.534;20.382;2022-12-18T06:28:36;1.30;99.90
28520;DHT22;15732;48.534;20.382;2022-12-18T06:31:04;1.20;99.90
28520;DHT22;15732;48.534;20.382;2022-12-18T06:33:35;1.00;99.90
28520;DHT22;15732;48.534;20.382;2022-12-18T06:38:32;0.90;99.90
28520;DHT22;15732;48.534;20.382;2022-12-18T06:41:11;0.80;99.90
28520;DHT22;15732;48.534;20.382;2022-12-18T06:43:38;0.70;99.90
28520;DHT22;15732;48.534;20.382;2022-12-18T06:46:09;0.60;99.90
28520;DHT22;15732;48.534;20.382;2022-12-18T06:48:40;0.50;99.90
28520;DHT22;15732;48.534;20.382;2022-12-18T06:51:08;0.50;99.90
28520;DHT22;15732;48.534;20.382;2022-12-18T06:53:35;0.50;99.90
28520;DHT22;15732;48.534;20.382;2022-12-18T06:56:05;0.60;99.90
28520;DHT22;15732;48.534;20.382;2022-12-18T06:58:32;0.50;99.90
28520;DHT22;15732;48.534;20.382;2022-12-18T07:01:07;0.50;99.90
28520;DHT22;15732;48.534;20.382;2022-12-18T07:03:40;0.50;99.90
28520;DHT22;15732;48.534;20.382;2022-12-18T07:06:14;0.50;99.90
28520;DHT22;15732;48.534;20.382;2022-12-18T07:08:42;0.50;99.90
28520;DHT22;15732;48.534;20.382;2022-12-18T07:11:13;0.50;99.90
28520;DHT22;15732;48.534;20.382;2022-12-18T07:13:41;0.50;99.90
28520;DHT22;15732;48.534;20.382;2022-12-18T07:16:09;0.50;99.90
28520;DHT22;15732;48.534;20.382;2022-12-18T07:18:37;0.40;99.90
28520;DHT22;15732;48.534;20.382;2022-12-18T07:21:06;0.40;99.90
28520;DHT22;15732;48.534;20.382;2022-12-18T07:23:34;0.40;99.90
28520;DHT22;15732;48.534;20.382;2022-12-18T07:26:06;0.30;99.90
28520;DHT22;15732;48.534;20.382;2022-12-18T07:28:34;0.30;99.90
28520;DHT22;15732;48.534;20.382;2022-12-18T07:31:21;0.30;99.90
28520;DHT22;15732;48.534;20.382;2022-12-18T07:33:49;0.30;99.90
28520;DHT22;15732;48.534;20.382;2022-12-18T07:36:16;0.30;99.90
28520;DHT22;15732;48.534;20.382;2022-12-18T07:38:46;0.30;99.90
28520;DHT22;15732;48.534;20.382;2022-12-18T07:41:13;0.30;99.90
28520;DHT22;15732;48.534;20.382;2022-12-18T07:43:41;0.40;99.90
28520;DHT22;15732;48.534;20.382;2022-12-18T07:46:09;0.40;99.90
28520;DHT22;15732;48.534;20.382;2022-12-18T07:48:36;0.50;99.90
28520;DHT22;15732;48.534;20.382;2022-12-18T07:51:05;0.60;99.90
28520;DHT22;15732;48.534;20.382;2022-12-18T07:53:33;0.60;99.90
28520;DHT22;15732;48.534;20.382;2022-12-18T07:56:05;0.60;99.90
28520;DHT22;15732;48.534;20.382;2022-12-18T07:58:48;0.50;99.90
28520;DHT22;15732;48.534;20.382;2022-12-18T08:01:16;0.50;99.90
28520;DHT22;15732;48.534;20.382;2022-12-18T08:03:43;0.50;99.90
28520;DHT22;15732;48.534;20.382;2022-12-18T08:06:11;0.50;99.90
28520;DHT22;15732;48.534;20.382;2022-12-18T08:08:38;0.40;99.90
28520;DHT22;15732;48.534;20.382;2022-12-18T08:11:08;0.40;99.90
28520;DHT22;15732;48.534;20.382;2022-12-18T08:13:35;0.50;99.90
28520;DHT22;15732;48.534;20.382;2022-12-18T08:16:22;0.60;99.90
28520;DHT22;15732;48.534;20.382;2022-12-18T08:18:51;0.70;99.90
28520;DHT22;15732;48.534;20.382;2022-12-18T08:21:24;0.70;99.90
28520;DHT22;15732;48.534;20.382;2022-12-18T08:23:53;0.80;99.90
28520;DHT22;15732;48.534;20.382;2022-12-18T08:26:21;0.90;99.90
28520;DHT22;15732;48.534;20.382;2022-12-18T08:28:50;0.90;99.90
28520;DHT22;15732;48.534;20.382;2022-12-18T08:31:18;1.00;99.90
28520;DHT22;15732;48.534;20.382;2022-12-18T08:33:45;1.00;99.90
28520;DHT22;15732;48.534;20.382;2022-12-18T08:36:15;1.00;99.90
28520;DHT22;15732;48.534;20.382;2022-12-18T08:38:43;1.00;99.90
28520;DHT22;15732;48.534;20.382;2022-12-18T08:41:12;1.00;99.90
28520;DHT22;15732;48.534;20.382;2022-12-18T08:43:39;1.00;99.90
28520;DHT22;15732;48.534;20.382;2022-12-18T08:46:26;1.00;99.90
28520;DHT22;15732;48.534;20.382;2022-12-18T08:48:54;1.10;99.90
28520;DHT22;15732;48.534;20.382;2022-12-18T08:51:22;1.10;99.90
28520;DHT22;15732;48.534;20.382;2022-12-18T08:53:49;1.20;99.90
28520;DHT22;15732;48.534;20.382;2022-12-18T08:56:16;1.20;99.90
28520;DHT22;15732;48.534;20.382;2022-12-18T08:58:44;1.30;99.90
28520;DHT22;15732;48.534;20.382;2022-12-18T09:01:12;1.30;99.90
28520;DHT22;15732;48.534;20.382;2022-12-18T09:03:39;1.30;99.90
28520;DHT22;15732;48.534;20.382;2022-12-18T09:06:07;1.30;99.90
28520;DHT22;15732;48.534;20.382;2022-12-18T09:08:34;1.30;99.90
28520;DHT22;15732;48.534;20.382;2022-12-18T09:11:03;1.40;99.90
28520;DHT22;15732;48.534;20.382;2022-12-18T09:13:30;1.40;99.90
28520;DHT22;15732;48.534;20.382;2022-12-18T09:15:58;1.50;99.90
28520;DHT22;15732;48.534;20.382;2022-12-18T09:18:25;1.50;99.90
28520;DHT22;15732;48.534;20.382;2022-12-18T09:20:52;1.50;99.90
28520;DHT22;15732;48.534;20.382;2022-12-18T09:23:20;1.50;99.90
28520;DHT22;15732;48.534;20.382;2022-12-18T09:25:47;1.50;99.90
28520;DHT22;15732;48.534;20.382;2022-12-18T09:28:16;1.60;99.90
28520;DHT22;15732;48.534;20.382;2022-12-18T09:30:48;1.60;99.90
28520;DHT22;15732;48.534;20.382;2022-12-18T09:33:19;1.70;99.90
28520;DHT22;15732;48.534;20.382;2022-12-18T09:35:47;1.70;99.90
28520;DHT22;15732;48.534;20.382;2022-12-18T09:38:19;1.70;99.90
28520;DHT22;15732;48.534;20.382;2022-12-18T09:40:53;1.60;99.90
28520;DHT22;15732;48.534;20.382;2022-12-18T09:44:02;1.60;99.90
28520;DHT22;15732;48.534;20.382;2022-12-18T09:46:33;1.40;99.90
28520;DHT22;15732;48.534;20.382;2022-12-18T09:49:05;1.30;99.90
28520;DHT22;15732;48.534;20.382;2022-12-18T09:51:39;1.20;99.90
28520;DHT22;15732;48.534;20.382;2022-12-18T09:54:14;1.20;99.90
28520;DHT22;15732;48.534;20.382;2022-12-18T09:56:43;1.10;99.90
28520;DHT22;15732;48.534;20.382;2022-12-18T10:01:49;1.20;99.90
28520;DHT22;15732;48.534;20.382;2022-12-18T10:04:16;1.20;99.90
28520;DHT22;15732;48.534;20.382;2022-12-18T10:06:47;1.20;99.90
28520;DHT22;15732;48.534;20.382;2022-12-18T10:20:48;1.40;99.90
28520;DHT22;15732;48.534;20.382;2022-12-18T10:23:28;1.50;99.90
28520;DHT22;15732;48.534;20.382;2022-12-18T10:26:06;1.60;99.90
28520;DHT22;15732;48.534;20.382;2022-12-18T10:28:41;1.60;99.90
28520;DHT22;15732;48.534;20.382;2022-12-18T10:31:22;1.70;99.90
28520;DHT22;15732;48.534;20.382;2022-12-18T10:34:10;1.80;99.90
28520;DHT22;15732;48.534;20.382;2022-12-18T10:36:37;1.80;99.90
28520;DHT22;15732;48.534;20.382;2022-12-18T10:39:39;1.80;99.90
28520;DHT22;15732;48.534;20.382;2022-12-18T10:42:16;1.80;99.90
28520;DHT22;15732;48.534;20.382;2022-12-18T10:44:43;1.80;99.90
28520;DHT22;15732;48.534;20.382;2022-12-18T10:47:18;1.90;99.90
28520;DHT22;15732;48.534;20.382;2022-12-18T10:49:52;1.90;99.90
28520;DHT22;15732;48.534;20.382;2022-12-18T10:52:25;1.90;99.90
28520;DHT22;15732;48.534;20.382;2022-12-18T10:55:02;1.90;99.90
28520;DHT22;15732;48.534;20.382;2022-12-18T10:57:36;1.80;99.90
28520;DHT22;15732;48.534;20.382;2022-12-18T11:00:29;1.90;99.90
28520;DHT22;15732;48.534;20.382;2022-12-18T11:02:57;1.90;99.90
28520;DHT22;15732;48.534;20.382;2022-12-18T11:05:29;1.90;99.90
28520;DHT22;15732;48.534;20.382;2022-12-18T11:07:56;1.90;99.90
28520;DHT22;15732;48.534;20.382;2022-12-18T11:10:32;1.90;99.90
28520;DHT22;15732;48.534;20.382;2022-12-18T11:13:32;2.00;99.90
28520;DHT22;15732;48.534;20.382;2022-12-18T11:15:59;2.00;99.90
28520;DHT22;15732;48.534;20.382;2022-12-18T11:18:34;2.00;99.90
28520;DHT22;15732;48.534;20.382;2022-12-18T11:21:12;2.10;99.90
28520;DHT22;15732;48.534;20.382;2022-12-18T11:24:07;2.10;99.90
28520;DHT22;15732;48.534;20.382;2022-12-18T11:26:46;2.10;99.90
28520;DHT22;15732;48.534;20.382;2022-12-18T11:29:22;2.20;99.90
28520;DHT22;15732;48.534;20.382;2022-12-18T11:31:50;2.20;99.90
28520;DHT22;15732;48.534;20.382;2022-12-18T11:34:26;2.30;99.90
28520;DHT22;15732;48.534;20.382;2022-12-18T11:36:54;2.30;99.90
28520;DHT22;15732;48.534;20.382;2022-12-18T11:39:51;2.30;99.90
28520;DHT22;15732;48.534;20.382;2022-12-18T11:42:50;2.30;99.90
28520;DHT22;15732;48.534;20.382;2022-12-18T11:45:29;2.30;99.90
28520;DHT22;15732;48.534;20.382;2022-12-18T11:50:46;2.40;99.90
28520;DHT22;15732;48.534;20.382;2022-12-18T11:53:14;2.40;99.90
28520;DHT22;15732;48.534;20.382;2022-12-18T11:56:18;2.40;99.90
28520;DHT22;15732;48.534;20.382;2022-12-18T12:01:53;2.50;99.90
28520;DHT22;15732;48.534;20.382;2022-12-18T12:07:59;2.50;99.90
28520;DHT22;15732;48.534;20.382;2022-12-18T12:21:52;2.60;99.90
28520;DHT22;15732;48.534;20.382;2022-12-18T12:27:22;2.60;99.90
28520;DHT22;15732;48.534;20.382;2022-12-18T12:32:59;2.70;99.90
28520;DHT22;15732;48.534;20.382;2022-12-18T12:38:31;2.70;99.90
28520;DHT22;15732;48.534;20.382;2022-12-18T12:41:08;2.70;99.90
28520;DHT22;15732;48.534;20.382;2022-12-18T12:43:57;2.70;99.90
28520;DHT22;15732;48.534;20.382;2022-12-18T12:46:26;2.70;99.90
28520;DHT22;15732;48.534;20.382;2022-12-18T12:48:59;2.70;99.90
28520;DHT22;15732;48.534;20.382;2022-12-18T12:51:37;2.70;99.90
28520;DHT22;15732;48.534;20.382;2022-12-18T12:54:10;2.70;99.90
28520;DHT22;15732;48.534;20.382;2022-12-18T12:56:57;2.70;99.90
28520;DHT22;15732;48.534;20.382;2022-12-18T13:02:42;2.80;99.90
28520;DHT22;15732;48.534;20.382;2022-12-18T13:05:27;2.70;99.90
28520;DHT22;15732;48.534;20.382;2022-12-18T13:08:51;2.70;99.90
28520;DHT22;15732;48.534;20.382;2022-12-18T13:10:47;2.70;99.90
28520;DHT22;15732;48.534;20.382;2022-12-18T13:13:15;2.70;99.90
28520;DHT22;15732;48.534;20.382;2022-12-18T13:16:05;2.70;99.90
28520;DHT22;15732;48.534;20.382;2022-12-18T13:18:33;2.70;99.90
28520;DHT22;15732;48.534;20.382;2022-12-18T13:21:02;2.70;99.90
28520;DHT22;15732;48.534;20.382;2022-12-18T13:23:33;2.70;99.90
28520;DHT22;15732;48.534;20.382;2022-12-18T13:34:18;2.80;99.90
28520;DHT22;15732;48.534;20.382;2022-12-18T13:36:45;2.80;99.90
28520;DHT22;15732;48.534;20.382;2022-12-18T13:41:49;2.80;99.90
28520;DHT22;15732;48.534;20.382;2022-12-18T13:44:36;2.80;99.90
28520;DHT22;15732;48.534;20.382;2022-12-18T13:47:04;2.80;99.90
28520;DHT22;15732;48.534;20.382;2022-12-18T13:49:43;2.80;99.90
28520;DHT22;15732;48.534;20.382;2022-12-18T13:52:36;2.80;99.90
28520;DHT22;15732;48.534;20.382;2022-12-18T13:55:14;2.80;99.90
28520;DHT22;15732;48.534;20.382;2022-12-18T13:57:42;2.80;99.90
28520;DHT22;15732;48.534;20.382;2022-12-18T14:02:49;2.80;99.90
28520;DHT22;15732;48.534;20.382;2022-12-18T14:07:49;2.70;99.90
28520;DHT22;15732;48.534;20.382;2022-12-18T14:10:16;2.70;99.90
28520;DHT22;15732;48.534;20.382;2022-12-18T14:12:49;2.70;99.90
28520;DHT22;15732;48.534;20.382;2022-12-18T14:15:34;2.70;99.90
28520;DHT22;15732;48.534;20.382;2022-12-18T14:18:29;2.70;99.90
28520;DHT22;15732;48.534;20.382;2022-12-18T14:21:02;2.70;99.90
28520;DHT22;15732;48.534;20.382;2022-12-18T14:23:39;2.70;99.90
28520;DHT22;15732;48.534;20.382;2022-12-18T14:26:28;2.70;99.90
28520;DHT22;15732;48.534;20.382;2022-12-18T14:31:45;2.70;99.90
28520;DHT22;15732;48.534;20.382;2022-12-18T14:34:16;2.70;99.90
28520;DHT22;15732;48.534;20.382;2022-12-18T14:36:52;2.70;99.90
28520;DHT22;15732;48.534;20.382;2022-12-18T14:39:19;2.70;99.90
28520;DHT22;15732;48.534;20.382;2022-12-18T14:41:48;2.70;99.90
28520;DHT22;15732;48.534;20.382;2022-12-18T14:44:16;2.70;99.90
28520;DHT22;15732;48.534;20.382;2022-12-18T14:46:44;2.70;99.90
28520;DHT22;15732;48.534;20.382;2022-12-18T14:49:33;2.70;99.90
28520;DHT22;15732;48.534;20.382;2022-12-18T14:52:05;2.70;99.90
28520;DHT22;15732;48.534;20.382;2022-12-18T14:54:34;2.70;99.90
28520;DHT22;15732;48.534;20.382;2022-12-18T14:57:06;2.70;99.90
28520;DHT22;15732;48.534;20.382;2022-12-18T14:59:45;2.70;99.90
28520;DHT22;15732;48.534;20.382;2022-12-18T15:02:27;2.70;99.90
28520;DHT22;15732;48.534;20.382;2022-12-18T15:05:14;2.70;99.90
28520;DHT22;15732;48.534;20.382;2022-12-18T15:07:48;2.70;99.90
28520;DHT22;15732;48.534;20.382;2022-12-18T15:10:20;2.70;99.90
28520;DHT22;15732;48.534;20.382;2022-12-18T15:20:44;2.60;99.90
28520;DHT22;15732;48.534;20.382;2022-12-18T15:23:28;2.60;99.90
28520;DHT22;15732;48.534;20.382;2022-12-18T15:26:03;2.50;99.90
28520;DHT22;15732;48.534;20.382;2022-12-18T15:36:20;2.50;99.90
28520;DHT22;15732;48.534;20.382;2022-12-18T15:38:50;2.40;99.90
28520;DHT22;15732;48.534;20.382;2022-12-18T15:41:18;2.40;99.90
28520;DHT22;15732;48.534;20.382;2022-12-18T15:43:45;2.30;99.90
28520;DHT22;15732;48.534;20.382;2022-12-18T15:46:16;2.30;99.90
28520;DHT22;15732;48.534;20.382;2022-12-18T15:49:06;2.30;99.90
28520;DHT22;15732;48.534;20.382;2022-12-18T15:51:36;2.30;99.90
28520;DHT22;15732;48.534;20.382;2022-12-18T15:54:06;2.20;99.90
28520;DHT22;15732;48.534;20.382;2022-12-18T15:56:35;2.20;99.90
28520;DHT22;15732;48.534;20.382;2022-12-18T15:59:22;2.20;99.90
28520;DHT22;15732;48.534;20.382;2022-12-18T16:01:53;2.20;99.90
28520;DHT22;15732;48.534;20.382;2022-12-18T16:04:21;2.10;99.90
28520;DHT22;15732;48.534;20.382;2022-12-18T16:06:49;2.10;99.90
28520;DHT22;15732;48.534;20.382;2022-12-18T16:09:16;2.00;99.90
28520;DHT22;15732;48.534;20.382;2022-12-18T16:11:43;2.00;99.90
28520;DHT22;15732;48.534;20.382;2022-12-18T16:14:24;1.90;99.90
28520;DHT22;15732;48.534;20.382;2022-12-18T16:16:59;1.90;99.90
28520;DHT22;15732;48.534;20.382;2022-12-18T16:19:29;1.80;99.90
28520;DHT22;15732;48.534;20.382;2022-12-18T16:21:57;1.80;99.90
28520;DHT22;15732;48.534;20.382;2022-12-18T16:24:30;1.80;99.90
28520;DHT22;15732;48.534;20.382;2022-12-18T16:26:58;1.80;99.90
28520;DHT22;15732;48.534;20.382;2022-12-18T16:29:27;1.80;99.90
28520;DHT22;15732;48.534;20.382;2022-12-18T16:31:58;1.70;99.90
28520;DHT22;15732;48.534;20.382;2022-12-18T16:34:30;1.70;99.90
28520;DHT22;15732;48.534;20.382;2022-12-18T16:37:17;1.70;99.90
28520;DHT22;15732;48.534;20.382;2022-12-18T16:39:44;1.70;99.90
28520;DHT22;15732;48.534;20.382;2022-12-18T16:42:16;1.60;99.90
28520;DHT22;15732;48.534;20.382;2022-12-18T16:44:46;1.60;99.90
28520;DHT22;15732;48.534;20.382;2022-12-18T16:47:13;1.60;99.90
28520;DHT22;15732;48.534;20.382;2022-12-18T16:49:41;1.60;99.90
28520;DHT22;15732;48.534;20.382;2022-12-18T16:52:13;1.60;99.90
28520;DHT22;15732;48.534;20.382;2022-12-18T16:54:40;1.50;99.90
28520;DHT22;15732;48.534;20.382;2022-12-18T16:57:10;1.60;99.90
28520;DHT22;15732;48.534;20.382;2022-12-18T16:59:38;1.50;99.90
28520;DHT22;15732;48.534;20.382;2022-12-18T17:02:10;1.50;99.90
28520;DHT22;15732;48.534;20.382;2022-12-18T17:04:38;1.40;99.90
28520;DHT22;15732;48.534;20.382;2022-12-18T17:07:05;1.40;99.90
28520;DHT22;15732;48.534;20.382;2022-12-18T17:09:33;1.40;99.90
28520;DHT22;15732;48.534;20.382;2022-12-18T17:12:11;1.40;99.90
28520;DHT22;15732;48.534;20.382;2022-12-18T17:14:42;1.40;99.90
28520;DHT22;15732;48.534;20.382;2022-12-18T17:17:13;1.30;99.90
28520;DHT22;15732;48.534;20.382;2022-12-18T17:19:44;1.30;99.90
28520;DHT22;15732;48.534;20.382;2022-12-18T17:22:11;1.30;99.90
28520;DHT22;15732;48.534;20.382;2022-12-18T17:24:39;1.30;99.90
28520;DHT22;15732;48.534;20.382;2022-12-18T17:27:06;1.20;99.90
28520;DHT22;15732;48.534;20.382;2022-12-18T17:29:34;1.20;99.90
28520;DHT22;15732;48.534;20.382;2022-12-18T17:32:02;1.20;99.90
28520;DHT22;15732;48.534;20.382;2022-12-18T17:34:29;1.20;99.90
28520;DHT22;15732;48.534;20.382;2022-12-18T17:36:56;1.20;99.90
28520;DHT22;15732;48.534;20.382;2022-12-18T17:39:24;1.20;99.90
28520;DHT22;15732;48.534;20.382;2022-12-18T17:41:51;1.20;99.90
28520;DHT22;15732;48.534;20.382;2022-12-18T17:44:18;1.10;99.90
28520;DHT22;15732;48.534;20.382;2022-12-18T17:46:45;1.10;99.90
28520;DHT22;15732;48.534;20.382;2022-12-18T17:49:13;1.10;99.90